createdAt,value
2023-03-10T00:01:33.671Z,99.90
2023-03-10T00:03:35.302Z,99.90
2023-03-10T00:05:38.945Z,93.80
2023-03-10T00:07:40.675Z,99.90
2023-03-10T00:09:42.376Z,99.90
2023-03-10T00:11:44.228Z,99.90
2023-03-10T00:13:45.887Z,99.90
2023-03-10T00:15:48.752Z,99.90
2023-03-10T00:17:52.150Z,99.90
2023-03-10T00:19:53.895Z,1.00
2023-03-10T00:21:55.824Z,1.00
2023-03-10T00:23:58.361Z,1.00
2023-03-10T00:26:01.021Z,1.00
2023-03-10T00:28:02.662Z,1.00
2023-03-10T00:30:05.068Z,99.90
2023-03-10T00:32:07.174Z,65.20
2023-03-10T00:34:10.265Z,99.90
2023-03-10T00:36:20.973Z,99.90
2023-03-10T00:38:22.711Z,10.90
2023-03-10T00:40:24.351Z,99.90
2023-03-10T00:42:26.311Z,1.00
2023-03-10T00:44:28.273Z,48.80
2023-03-10T00:46:33.187Z,99.90
2023-03-10T00:48:35.456Z,99.90
2023-03-10T00:50:37.179Z,99.90
2023-03-10T00:52:38.858Z,99.90
2023-03-10T00:54:41.802Z,99.90
2023-03-10T00:56:43.451Z,99.90
2023-03-10T00:58:46.795Z,1.00
2023-03-10T01:00:48.427Z,1.00
2023-03-10T01:02:52.882Z,1.00
2023-03-10T01:04:54.591Z,1.00
2023-03-10T01:06:56.322Z,1.00
2023-03-10T01:08:58.288Z,20.80
2023-03-10T01:11:00.270Z,90.30
2023-03-10T01:13:01.972Z,44.90
2023-03-10T01:15:04.732Z,25.30
2023-03-10T01:17:06.770Z,22.50
2023-03-10T01:19:08.536Z,56.10
2023-03-10T01:21:19.822Z,48.20
2023-03-10T01:23:23.870Z,99.90
2023-03-10T01:25:26.074Z,99.90
2023-03-10T01:27:27.761Z,96.40
2023-03-10T01:29:29.491Z,82.40
2023-03-10T01:31:31.354Z,99.90
2023-03-10T01:33:36.413Z,69.10
2023-03-10T01:35:38.823Z,12.60
2023-03-10T01:37:41.119Z,68.70
2023-03-10T01:39:43.998Z,48.50
2023-03-10T01:41:45.723Z,52.40
2023-03-10T01:44:05.532Z,99.90
2023-03-10T01:46:38.352Z,99.90
2023-03-10T01:48:40.288Z,99.90
2023-03-10T01:50:45.190Z,99.90
2023-03-10T01:52:56.517Z,99.90
2023-03-10T01:55:15.031Z,99.90
2023-03-10T01:57:21.146Z,99.90
2023-03-10T01:59:23.848Z,99.90
2023-03-10T02:01:26.277Z,93.80
2023-03-10T02:03:37.598Z,89.20
2023-03-10T02:05:45.451Z,9.50
2023-03-10T02:07:47.881Z,99.90
2023-03-10T02:09:51.610Z,99.90
2023-03-10T02:11:54.478Z,99.90
2023-03-10T02:13:56.672Z,69.40
2023-03-10T02:15:58.553Z,1.00
2023-03-10T02:18:02.286Z,59.60
2023-03-10T02:20:12.930Z,1.00
2023-03-10T02:22:15.887Z,1.00
2023-03-10T02:24:29.206Z,99.90
2023-03-10T02:26:42.837Z,78.70
2023-03-10T02:28:45.891Z,99.90
2023-03-10T02:30:50.319Z,99.90
2023-03-10T02:32:55.813Z,99.90
2023-03-10T02:34:58.310Z,99.90
2023-03-10T02:37:00.027Z,99.90
2023-03-10T02:39:01.882Z,99.90
2023-03-10T02:41:25.772Z,99.90
2023-03-10T02:43:34.520Z,99.90
2023-03-10T02:45:39.384Z,99.90
2023-03-10T02:47:41.150Z,99.90
2023-03-10T02:49:43.806Z,99.90
2023-03-10T02:51:47.082Z,99.90
2023-03-10T02:53:49.072Z,1.00
2023-03-10T02:55:51.532Z,1.00
2023-03-10T02:57:53.176Z,1.00
2023-03-10T02:59:54.871Z,1.00
2023-03-10T03:01:56.550Z,1.00
2023-03-10T03:03:58.686Z,1.00
2023-03-10T03:06:00.597Z,1.00
2023-03-10T03:08:02.851Z,1.00
2023-03-10T03:10:05.457Z,1.00
2023-03-10T03:12:07.537Z,1.00
2023-03-10T03:14:09.206Z,1.00
2023-03-10T03:16:11.467Z,1.00
2023-03-10T03:18:13.162Z,1.00
2023-03-10T03:20:15.556Z,1.00
2023-03-10T03:22:17.245Z,1.00
2023-03-10T03:24:21.213Z,1.00
2023-03-10T03:26:25.464Z,1.00
2023-03-10T03:28:27.190Z,1.00
2023-03-10T03:30:29.251Z,1.00
2023-03-10T03:32:31.131Z,1.00
2023-03-10T03:34:32.827Z,1.00
2023-03-10T03:36:35.976Z,1.00
2023-03-10T03:38:38.037Z,1.00
2023-03-10T03:40:39.946Z,1.00
2023-03-10T03:42:47.848Z,1.00
2023-03-10T03:44:49.471Z,1.00
2023-03-10T03:46:51.269Z,1.00
2023-03-10T03:48:52.944Z,1.00
2023-03-10T03:50:54.652Z,1.00
2023-03-10T03:52:56.733Z,1.00
2023-03-10T03:54:58.432Z,1.00
2023-03-10T03:57:00.652Z,1.00
2023-03-10T03:59:02.326Z,3.60
2023-03-10T04:01:04.365Z,9.70
2023-03-10T04:03:06.631Z,16.20
2023-03-10T04:05:08.961Z,10.50
2023-03-10T04:07:10.696Z,4.30
2023-03-10T04:09:13.744Z,1.00
2023-03-10T04:11:15.753Z,1.00
2023-03-10T04:13:17.475Z,1.00
2023-03-10T04:15:19.246Z,1.00
2023-03-10T04:17:21.064Z,1.00
2023-03-10T04:19:22.694Z,4.00
2023-03-10T04:21:24.443Z,4.40
2023-03-10T04:23:26.256Z,5.00
2023-03-10T04:25:28.386Z,7.70
2023-03-10T04:27:31.019Z,12.40
2023-03-10T04:29:32.686Z,12.40
2023-03-10T04:31:34.365Z,12.50
2023-03-10T04:33:36.113Z,15.00
2023-03-10T04:35:43.232Z,20.40
2023-03-10T04:37:44.960Z,16.10
2023-03-10T04:39:46.676Z,13.90
2023-03-10T04:41:48.397Z,10.90
2023-03-10T04:43:50.258Z,11.50
2023-03-10T04:45:51.998Z,12.60
2023-03-10T04:47:53.966Z,14.70
2023-03-10T04:49:55.645Z,7.80
2023-03-10T04:51:57.456Z,1.40
2023-03-10T04:54:00.284Z,2.30
2023-03-10T04:56:04.009Z,2.30
2023-03-10T04:58:05.796Z,8.30
2023-03-10T05:00:09.005Z,1.30
2023-03-10T05:02:10.680Z,2.00
2023-03-10T05:04:12.473Z,1.00
2023-03-10T05:06:20.142Z,1.00
2023-03-10T05:08:21.863Z,1.00
2023-03-10T05:10:23.498Z,1.00
2023-03-10T05:12:25.182Z,1.00
2023-03-10T05:14:26.850Z,1.00
2023-03-10T05:16:28.623Z,1.00
2023-03-10T05:18:30.544Z,1.00
2023-03-10T05:20:32.274Z,1.00
2023-03-10T05:22:33.960Z,1.00
2023-03-10T05:24:36.948Z,1.00
2023-03-10T05:26:38.738Z,1.00
2023-03-10T05:28:40.517Z,1.00
2023-03-10T05:30:42.297Z,1.00
2023-03-10T05:32:44.954Z,1.00
2023-03-10T05:34:46.657Z,1.00
2023-03-10T05:36:48.536Z,1.00
2023-03-10T05:38:50.776Z,1.00
2023-03-10T05:40:52.537Z,1.00
2023-03-10T05:42:54.218Z,1.00
2023-03-10T05:44:55.988Z,1.00
2023-03-10T05:46:57.857Z,1.00
2023-03-10T05:48:59.669Z,1.00
2023-03-10T05:51:06.990Z,1.00
2023-03-10T05:53:09.132Z,1.00
2023-03-10T05:55:17.148Z,1.00
2023-03-10T05:57:18.938Z,1.00
2023-03-10T05:59:20.654Z,1.00
2023-03-10T06:01:22.296Z,1.00
2023-03-10T06:03:25.044Z,1.00
2023-03-10T06:05:26.918Z,1.00
2023-03-10T06:07:29.005Z,1.00
2023-03-10T06:09:32.574Z,1.00
2023-03-10T06:11:34.941Z,1.00
2023-03-10T06:13:37.259Z,1.00
2023-03-10T06:15:39.479Z,1.00
2023-03-10T06:17:41.564Z,1.00
2023-03-10T06:19:43.475Z,1.00
2023-03-10T06:21:45.964Z,5.20
2023-03-10T06:23:47.828Z,19.00
2023-03-10T06:26:16.896Z,21.40
2023-03-10T06:28:18.519Z,52.30
2023-03-10T06:30:20.932Z,99.90
2023-03-10T06:32:22.743Z,99.90
2023-03-10T06:34:24.379Z,99.90
2023-03-10T06:36:28.614Z,99.90
2023-03-10T06:38:31.154Z,99.90
2023-03-10T06:40:32.993Z,99.90
2023-03-10T06:42:34.854Z,99.90
2023-03-10T06:44:36.796Z,99.90
2023-03-10T06:46:39.192Z,99.90
2023-03-10T06:48:42.200Z,99.90
2023-03-10T06:50:48.055Z,99.90
2023-03-10T06:52:49.767Z,99.90
2023-03-10T06:54:51.549Z,99.90
2023-03-10T06:56:53.668Z,99.90
2023-03-10T06:58:55.409Z,99.90
2023-03-10T07:00:57.284Z,99.90
2023-03-10T07:02:59.972Z,99.90
2023-03-10T07:05:02.185Z,99.90
2023-03-10T07:07:03.928Z,99.90
2023-03-10T07:09:06.145Z,99.90
2023-03-10T07:11:08.700Z,99.90
2023-03-10T07:13:13.832Z,99.90
2023-03-10T07:15:15.644Z,99.90
2023-03-10T07:17:17.707Z,99.90
2023-03-10T07:19:19.760Z,99.90
2023-03-10T07:21:21.566Z,99.90
2023-03-10T07:23:24.344Z,99.90
2023-03-10T07:25:26.506Z,99.90
2023-03-10T07:27:28.231Z,99.90
2023-03-10T07:29:29.973Z,99.90
2023-03-10T07:31:32.676Z,99.90
2023-03-10T07:33:34.677Z,99.90
2023-03-10T07:35:37.318Z,99.90
2023-03-10T07:37:40.580Z,99.90
2023-03-10T07:39:42.357Z,99.90
2023-03-10T07:41:44.073Z,99.90
2023-03-10T07:43:45.900Z,99.90
2023-03-10T07:45:47.710Z,99.90
2023-03-10T07:47:51.617Z,99.90
2023-03-10T07:49:53.279Z,99.90
2023-03-10T07:51:55.034Z,99.90
2023-03-10T07:53:57.773Z,99.90
2023-03-10T07:56:00.209Z,99.90
2023-03-10T07:58:01.987Z,99.90
2023-03-10T08:00:05.659Z,99.90
2023-03-10T08:02:10.256Z,99.90
2023-03-10T08:04:12.576Z,99.90
2023-03-10T08:06:23.218Z,99.90
2023-03-10T08:08:24.885Z,99.90
2023-03-10T08:10:26.656Z,99.90
2023-03-10T08:12:28.318Z,99.90
2023-03-10T08:14:31.298Z,99.90
2023-03-10T08:16:33.176Z,99.90
2023-03-10T08:18:35.025Z,99.90
2023-03-10T08:20:37.088Z,99.90
2023-03-10T08:22:39.051Z,99.90
2023-03-10T08:24:41.044Z,99.90
2023-03-10T08:26:42.786Z,99.90
2023-03-10T08:28:45.054Z,99.90
2023-03-10T08:31:03.040Z,99.90
2023-03-10T08:33:08.257Z,99.90
2023-03-10T08:35:10.326Z,99.90
2023-03-10T08:37:12.343Z,99.90
2023-03-10T08:39:14.039Z,99.90
2023-03-10T08:41:24.585Z,99.90
2023-03-10T08:43:26.283Z,99.90
2023-03-10T08:45:27.929Z,99.90
2023-03-10T08:47:32.250Z,99.90
2023-03-10T08:49:34.430Z,99.90
2023-03-10T08:51:36.514Z,99.90
2023-03-10T08:53:38.939Z,99.90
2023-03-10T08:55:41.479Z,99.90
2023-03-10T08:57:43.197Z,99.90
2023-03-10T08:59:44.941Z,99.90
2023-03-10T09:01:47.270Z,99.90
2023-03-10T09:03:49.081Z,99.90
2023-03-10T09:05:50.931Z,99.90
2023-03-10T09:07:52.535Z,99.90
2023-03-10T09:09:54.213Z,99.90
2023-03-10T09:11:55.971Z,99.90
2023-03-10T09:13:58.134Z,99.90
2023-03-10T09:15:59.933Z,99.90
2023-03-10T09:18:01.980Z,99.90
2023-03-10T09:20:06.436Z,99.90
2023-03-10T09:22:08.188Z,99.90
2023-03-10T09:24:10.074Z,99.90
2023-03-10T09:26:12.161Z,99.90
2023-03-10T09:28:15.382Z,23.80
2023-03-10T09:30:18.574Z,1.00
2023-03-10T09:32:20.538Z,1.00
2023-03-10T09:34:22.364Z,1.00
2023-03-10T09:36:24.147Z,1.00
2023-03-10T09:38:26.007Z,1.00
2023-03-10T09:40:27.745Z,1.00
2023-03-10T09:42:43.204Z,1.00
2023-03-10T09:44:47.626Z,10.70
2023-03-10T09:47:08.173Z,56.50
2023-03-10T09:49:22.646Z,83.70
2023-03-10T09:51:27.688Z,99.90
2023-03-10T09:54:14.092Z,99.90
2023-03-10T09:56:31.562Z,91.60
2023-03-10T09:58:39.065Z,99.90
2023-03-10T10:00:43.341Z,99.90
2023-03-10T10:02:48.940Z,99.90
2023-03-10T10:04:55.337Z,99.90
2023-03-10T10:06:59.138Z,95.30
2023-03-10T10:09:05.800Z,97.90
2023-03-10T10:11:14.844Z,99.90
2023-03-10T10:13:17.389Z,99.90
2023-03-10T10:15:25.440Z,99.90
2023-03-10T10:18:18.209Z,99.90
2023-03-10T10:20:28.683Z,99.90
2023-03-10T10:22:34.569Z,99.90
2023-03-10T10:24:36.671Z,99.90
2023-03-10T10:26:38.576Z,1.00
2023-03-10T10:28:50.782Z,51.40
2023-03-10T10:31:08.966Z,99.90
2023-03-10T10:33:13.280Z,37.00
2023-03-10T10:35:16.033Z,22.10
2023-03-10T10:37:31.497Z,28.50
2023-03-10T10:39:42.713Z,41.40
2023-03-10T10:41:44.364Z,22.10
2023-03-10T10:43:46.527Z,99.90
2023-03-10T10:45:54.455Z,99.90
2023-03-10T10:47:56.542Z,99.90
2023-03-10T10:50:22.651Z,99.90
2023-03-10T10:52:27.583Z,99.90
2023-03-10T10:54:40.876Z,99.90
2023-03-10T10:56:55.897Z,99.90
2023-03-10T10:59:22.403Z,99.90
2023-03-10T11:01:24.133Z,99.90
2023-03-10T11:03:36.808Z,99.90
2023-03-10T11:05:38.928Z,70.80
2023-03-10T11:07:40.771Z,81.40
2023-03-10T11:09:42.955Z,99.90
2023-03-10T11:11:53.733Z,98.00
2023-03-10T11:14:46.543Z,62.60
2023-03-10T11:17:02.200Z,94.60
2023-03-10T11:19:24.619Z,68.30
2023-03-10T11:21:30.110Z,92.30
2023-03-10T11:23:49.019Z,99.90
2023-03-10T11:25:59.240Z,99.90
2023-03-10T11:28:12.727Z,99.90
2023-03-10T11:30:26.017Z,99.90
2023-03-10T11:32:46.935Z,49.70
2023-03-10T11:34:50.809Z,99.90
2023-03-10T11:37:13.623Z,99.90
2023-03-10T11:39:45.603Z,67.80
2023-03-10T11:41:51.737Z,86.90
2023-03-10T11:43:56.564Z,67.30
2023-03-10T11:46:04.232Z,99.90
2023-03-10T11:48:50.186Z,98.50
2023-03-10T11:50:59.179Z,52.60
2023-03-10T11:53:13.696Z,39.90
2023-03-10T11:55:21.006Z,1.00
2023-03-10T11:57:25.433Z,2.40
2023-03-10T11:59:33.867Z,1.00
2023-03-10T12:01:50.521Z,1.00
2023-03-10T12:04:24.370Z,1.00
2023-03-10T12:07:09.738Z,1.00
2023-03-10T12:09:31.414Z,1.00
2023-03-10T12:11:35.543Z,1.00
2023-03-10T12:13:46.882Z,1.00
2023-03-10T12:15:50.211Z,11.70
2023-03-10T12:17:54.207Z,14.90
2023-03-10T12:20:15.946Z,44.20
2023-03-10T12:22:25.275Z,27.40
2023-03-10T12:24:47.012Z,24.00
2023-03-10T12:26:50.080Z,39.50
2023-03-10T12:29:20.611Z,36.60
2023-03-10T12:31:37.614Z,70.20
2023-03-10T12:33:45.810Z,57.40
2023-03-10T12:35:50.824Z,4.30
2023-03-10T12:38:27.773Z,24.60
2023-03-10T12:40:52.017Z,1.00
2023-03-10T12:42:53.704Z,1.00
2023-03-10T12:45:21.495Z,1.00
2023-03-10T12:47:34.929Z,1.00
2023-03-10T12:49:45.399Z,1.00
2023-03-10T12:51:53.197Z,1.00
2023-03-10T12:54:32.931Z,1.00
2023-03-10T12:56:42.053Z,1.00
2023-03-10T12:59:02.287Z,1.00
2023-03-10T13:01:07.386Z,1.00
2023-03-10T13:03:35.325Z,1.00
2023-03-10T13:06:03.850Z,1.00
2023-03-10T13:08:33.209Z,1.00
2023-03-10T13:10:35.836Z,1.00
2023-03-10T13:12:50.417Z,1.00
2023-03-10T13:14:56.523Z,1.00
2023-03-10T13:17:03.140Z,1.00
2023-03-10T13:19:05.641Z,1.00
2023-03-10T13:21:07.415Z,1.00
2023-03-10T13:23:29.431Z,1.00
2023-03-10T13:25:33.709Z,1.00
2023-03-10T13:27:35.951Z,1.00
2023-03-10T13:29:38.029Z,1.00
2023-03-10T13:31:39.828Z,1.00
2023-03-10T13:33:53.461Z,1.00
2023-03-10T13:35:55.796Z,27.90
2023-03-10T13:38:26.963Z,15.60
2023-03-10T13:40:28.582Z,75.90
2023-03-10T13:42:42.932Z,82.40
2023-03-10T13:44:45.049Z,20.10
2023-03-10T13:46:53.622Z,18.10
2023-03-10T13:49:03.487Z,42.90
2023-03-10T13:51:32.544Z,10.90
2023-03-10T13:53:34.443Z,41.30
2023-03-10T13:55:40.562Z,99.90
2023-03-10T13:57:43.778Z,99.90
2023-03-10T13:59:47.602Z,99.90
2023-03-10T14:01:53.574Z,99.90
2023-03-10T14:04:00.096Z,99.90
2023-03-10T14:06:13.544Z,99.90
2023-03-10T14:08:32.368Z,99.90
2023-03-10T14:10:34.336Z,99.90
2023-03-10T14:12:40.615Z,99.90
2023-03-10T14:14:42.380Z,99.90
2023-03-10T14:16:45.523Z,99.90
2023-03-10T14:18:47.309Z,99.90
2023-03-10T14:20:49.059Z,99.90
2023-03-10T14:22:50.852Z,99.90
2023-03-10T14:24:52.695Z,99.90
2023-03-10T14:26:59.398Z,99.90
2023-03-10T14:29:03.011Z,99.90
2023-03-10T14:31:06.690Z,99.90
2023-03-10T14:33:13.527Z,99.90
2023-03-10T14:35:17.920Z,99.90
2023-03-10T14:37:19.813Z,99.90
2023-03-10T14:39:21.508Z,99.90
2023-03-10T14:41:25.030Z,99.90
2023-03-10T14:43:28.294Z,99.90
2023-03-10T14:45:33.419Z,99.90
2023-03-10T14:47:35.656Z,99.90
2023-03-10T14:49:37.687Z,99.90
2023-03-10T14:51:39.513Z,99.90
2023-03-10T14:53:41.659Z,99.90
2023-03-10T14:55:47.802Z,99.90
2023-03-10T14:57:57.260Z,99.90
2023-03-10T14:59:58.973Z,99.90
2023-03-10T15:02:07.938Z,99.90
2023-03-10T15:04:15.501Z,99.90
2023-03-10T15:06:19.661Z,99.90
2023-03-10T15:08:21.456Z,99.90
2023-03-10T15:10:23.643Z,99.90
2023-03-10T15:12:25.373Z,99.90
2023-03-10T15:14:27.185Z,99.90
2023-03-10T15:16:28.931Z,99.90
2023-03-10T15:18:30.648Z,99.90
2023-03-10T15:20:32.537Z,99.90
2023-03-10T15:22:34.280Z,99.90
2023-03-10T15:24:36.042Z,99.90
2023-03-10T15:26:37.744Z,99.90
2023-03-10T15:28:40.181Z,99.90
2023-03-10T15:30:42.211Z,99.90
2023-03-10T15:32:43.975Z,99.90
2023-03-10T15:34:45.908Z,99.90
2023-03-10T15:36:47.691Z,99.90
2023-03-10T15:38:49.417Z,99.90
2023-03-10T15:40:51.315Z,99.90
2023-03-10T15:42:55.759Z,99.90
2023-03-10T15:44:57.472Z,99.90
2023-03-10T15:46:59.379Z,99.90
2023-03-10T15:49:03.187Z,99.90
2023-03-10T15:51:09.904Z,99.90
2023-03-10T15:53:11.741Z,99.90
2023-03-10T15:55:15.013Z,99.90
2023-03-10T15:57:16.981Z,99.90
2023-03-10T15:59:18.946Z,99.90
2023-03-10T16:01:21.171Z,99.90
2023-03-10T16:03:23.066Z,99.90
2023-03-10T16:05:24.770Z,99.90
2023-03-10T16:07:26.511Z,99.90
2023-03-10T16:09:28.496Z,97.00
2023-03-10T16:11:30.275Z,84.30
2023-03-10T16:13:32.263Z,24.10
2023-03-10T16:15:37.706Z,1.00
2023-03-10T16:17:39.922Z,1.00
2023-03-10T16:19:41.641Z,1.00
2023-03-10T16:21:45.099Z,1.00
2023-03-10T16:23:47.071Z,1.00
2023-03-10T16:26:13.095Z,1.00
2023-03-10T16:28:14.713Z,1.00
2023-03-10T16:30:17.676Z,1.00
2023-03-10T16:32:19.747Z,1.00
2023-03-10T16:34:21.630Z,1.00
2023-03-10T16:36:26.690Z,1.00
2023-03-10T16:38:28.728Z,1.00
2023-03-10T16:40:30.460Z,1.00
2023-03-10T16:42:36.633Z,1.00
2023-03-10T16:44:38.307Z,1.00
2023-03-10T16:46:39.925Z,1.00
2023-03-10T16:48:44.153Z,1.00
2023-03-10T16:50:47.319Z,1.00
2023-03-10T16:52:55.057Z,1.00
2023-03-10T16:54:58.019Z,1.00
2023-03-10T16:57:01.534Z,1.00
2023-03-10T16:59:04.420Z,1.00
2023-03-10T17:01:06.540Z,1.00
2023-03-10T17:03:08.325Z,1.00
2023-03-10T17:05:10.237Z,1.00
2023-03-10T17:07:11.940Z,1.00
2023-03-10T17:09:15.383Z,1.00
2023-03-10T17:11:20.968Z,1.00
2023-03-10T17:13:22.735Z,1.00
2023-03-10T17:15:24.711Z,1.00
2023-03-10T17:17:28.639Z,1.00
2023-03-10T17:19:30.517Z,1.00
2023-03-10T17:21:36.004Z,1.00
2023-03-10T17:23:37.781Z,1.00
2023-03-10T17:25:42.893Z,1.00
2023-03-10T17:27:44.621Z,1.00
2023-03-10T17:29:46.408Z,1.00
2023-03-10T17:31:50.523Z,1.00
2023-03-10T17:34:10.657Z,1.00
2023-03-10T17:36:14.768Z,1.00
2023-03-10T17:38:16.395Z,1.00
2023-03-10T17:40:21.522Z,1.00
2023-03-10T17:42:23.468Z,1.00
2023-03-10T17:44:25.762Z,1.00
2023-03-10T17:46:29.653Z,1.00
2023-03-10T17:48:32.365Z,1.00
2023-03-10T17:50:34.058Z,1.00
2023-03-10T17:52:36.011Z,1.00
2023-03-10T17:54:37.802Z,1.00
2023-03-10T17:56:39.871Z,1.00
2023-03-10T17:58:43.233Z,1.00
2023-03-10T18:00:45.003Z,1.00
2023-03-10T18:02:46.780Z,1.00
2023-03-10T18:04:48.707Z,1.00
2023-03-10T18:06:50.361Z,1.00
2023-03-10T18:08:55.458Z,1.00
2023-03-10T18:11:05.161Z,99.90
2023-03-10T18:13:09.902Z,99.90
2023-03-10T18:15:12.149Z,1.00
2023-03-10T18:17:13.852Z,1.00
2023-03-10T18:19:19.116Z,1.00
2023-03-10T18:21:22.358Z,1.00
2023-03-10T18:23:24.672Z,1.00
2023-03-10T18:25:26.354Z,1.00
2023-03-10T18:27:29.101Z,1.00
2023-03-10T18:29:30.976Z,1.00
2023-03-10T18:31:34.365Z,1.00
2023-03-10T18:33:37.185Z,1.00
2023-03-10T18:35:43.645Z,1.00
2023-03-10T18:37:45.397Z,1.00
2023-03-10T18:39:47.140Z,1.00
2023-03-10T18:41:49.197Z,1.00
2023-03-10T18:43:52.226Z,1.00
2023-03-10T18:45:54.014Z,1.00
2023-03-10T18:47:55.807Z,1.00
2023-03-10T18:49:58.721Z,1.00
2023-03-10T18:52:00.644Z,1.00
2023-03-10T18:54:04.389Z,1.00
2023-03-10T18:56:07.628Z,1.00
2023-03-10T18:58:09.415Z,1.00
2023-03-10T19:00:14.603Z,1.00
2023-03-10T19:02:16.294Z,1.00
2023-03-10T19:04:18.252Z,1.00
2023-03-10T19:06:19.975Z,1.00
2023-03-10T19:08:22.449Z,1.00
2023-03-10T19:10:24.135Z,1.00
2023-03-10T19:12:26.490Z,1.00
2023-03-10T19:14:28.303Z,1.00
2023-03-10T19:16:30.096Z,1.00
2023-03-10T19:18:31.816Z,1.00
2023-03-10T19:20:33.538Z,1.00
2023-03-10T19:22:35.946Z,1.00
2023-03-10T19:24:37.674Z,1.00
2023-03-10T19:26:39.429Z,1.00
2023-03-10T19:28:41.094Z,1.00
2023-03-10T19:30:43.654Z,1.00
2023-03-10T19:32:46.072Z,1.00
2023-03-10T19:34:47.903Z,1.00
2023-03-10T19:36:49.657Z,1.00
2023-03-10T19:38:51.332Z,1.00
2023-03-10T19:40:53.019Z,1.00
2023-03-10T19:42:54.709Z,1.00
2023-03-10T19:44:56.477Z,1.00
2023-03-10T19:46:58.272Z,1.00
2023-03-10T19:49:00.127Z,1.00
2023-03-10T19:51:01.889Z,2.00
2023-03-10T19:53:03.744Z,1.00
2023-03-10T19:55:09.083Z,1.00
2023-03-10T19:57:13.095Z,1.00
2023-03-10T19:59:15.018Z,1.00
2023-03-10T20:01:19.926Z,1.00
2023-03-10T20:03:21.874Z,1.00
2023-03-10T20:05:25.534Z,1.00
2023-03-10T20:07:27.260Z,1.00
2023-03-10T20:09:28.938Z,1.00
2023-03-10T20:11:30.730Z,1.00
2023-03-10T20:13:35.652Z,1.00
2023-03-10T20:15:38.127Z,1.00
2023-03-10T20:17:39.901Z,1.00
2023-03-10T20:19:42.080Z,1.00
2023-03-10T20:21:44.111Z,1.00
2023-03-10T20:23:47.696Z,1.00
2023-03-10T20:25:49.738Z,99.90
2023-03-10T20:27:53.742Z,1.00
2023-03-10T20:29:55.475Z,99.90
2023-03-10T20:31:57.666Z,99.90
2023-03-10T20:34:01.140Z,99.90
2023-03-10T20:36:02.907Z,99.90
2023-03-10T20:38:04.743Z,99.90
2023-03-10T20:40:08.027Z,99.90
2023-03-10T20:42:09.754Z,99.90
2023-03-10T20:44:14.279Z,1.00
2023-03-10T20:46:19.578Z,1.00
2023-03-10T20:48:21.343Z,1.00
2023-03-10T20:50:23.229Z,1.00
2023-03-10T20:52:24.945Z,1.00
2023-03-10T20:54:26.811Z,1.00
2023-03-10T20:56:31.063Z,1.00
2023-03-10T20:58:33.154Z,1.00
2023-03-10T21:00:34.835Z,1.00
2023-03-10T21:02:36.536Z,1.00
2023-03-10T21:04:38.328Z,1.00
2023-03-10T21:06:40.058Z,1.00
2023-03-10T21:08:41.804Z,99.90
2023-03-10T21:10:45.001Z,99.90
2023-03-10T21:12:46.948Z,99.90
2023-03-10T21:14:49.040Z,99.90
2023-03-10T21:16:51.352Z,99.90
2023-03-10T21:18:53.397Z,99.90
2023-03-10T21:20:55.063Z,99.90
2023-03-10T21:22:57.143Z,99.90
2023-03-10T21:24:59.006Z,99.90
2023-03-10T21:27:01.180Z,99.90
2023-03-10T21:29:04.304Z,40.70
2023-03-10T21:31:06.081Z,92.60
2023-03-10T21:33:07.969Z,99.90
2023-03-10T21:35:13.830Z,99.90
2023-03-10T21:37:15.683Z,99.90
2023-03-10T21:39:17.394Z,99.90
2023-03-10T21:41:23.130Z,99.90
2023-03-10T21:43:27.314Z,1.00
2023-03-10T21:45:28.971Z,99.90
2023-03-10T21:47:31.127Z,99.90
2023-03-10T21:49:32.971Z,1.00
2023-03-10T21:51:35.018Z,99.90
2023-03-10T21:53:36.773Z,99.90
2023-03-10T21:55:38.680Z,1.00
2023-03-10T21:57:40.488Z,1.00
2023-03-10T21:59:42.365Z,1.00
2023-03-10T22:01:44.133Z,1.00
2023-03-10T22:03:46.105Z,1.00
2023-03-10T22:05:48.989Z,1.00
2023-03-10T22:07:50.799Z,1.00
2023-03-10T22:09:52.436Z,99.90
2023-03-10T22:11:54.119Z,1.00
2023-03-10T22:13:55.915Z,99.90
2023-03-10T22:16:00.250Z,1.00
2023-03-10T22:18:02.069Z,99.90
2023-03-10T22:20:06.701Z,99.90
2023-03-10T22:22:08.588Z,99.90
2023-03-10T22:24:11.073Z,99.90
2023-03-10T22:26:14.496Z,99.90
2023-03-10T22:28:16.581Z,99.90
2023-03-10T22:30:19.756Z,99.90
2023-03-10T22:32:21.471Z,99.90
2023-03-10T22:34:23.272Z,99.90
2023-03-10T22:36:25.096Z,99.90
2023-03-10T22:38:26.732Z,99.90
2023-03-10T22:40:28.904Z,99.90
2023-03-10T22:42:30.900Z,99.90
2023-03-10T22:44:36.763Z,99.90
2023-03-10T22:46:38.708Z,99.90
2023-03-10T22:48:41.039Z,99.90
2023-03-10T22:50:46.512Z,99.90
2023-03-10T22:52:48.294Z,99.90
2023-03-10T22:54:50.354Z,1.00
2023-03-10T22:56:52.159Z,1.00
2023-03-10T22:58:53.828Z,1.00
2023-03-10T23:00:55.527Z,1.00
2023-03-10T23:02:57.778Z,1.00
2023-03-10T23:04:59.654Z,1.00
2023-03-10T23:07:01.923Z,99.90
2023-03-10T23:09:04.882Z,99.90
2023-03-10T23:11:15.328Z,99.90
2023-03-10T23:13:17.201Z,99.90
2023-03-10T23:15:25.907Z,99.90
2023-03-10T23:17:27.860Z,99.90
2023-03-10T23:19:29.748Z,99.90
2023-03-10T23:21:31.732Z,99.90
2023-03-10T23:23:33.710Z,99.90
2023-03-10T23:25:37.148Z,99.90
2023-03-10T23:27:38.835Z,99.90
2023-03-10T23:29:40.860Z,99.90
2023-03-10T23:31:42.626Z,99.90
2023-03-10T23:33:45.288Z,99.90
2023-03-10T23:35:53.786Z,99.90
2023-03-10T23:37:58.051Z,99.90
2023-03-10T23:39:59.747Z,99.90
2023-03-10T23:42:02.052Z,99.90
2023-03-10T23:44:03.722Z,1.00
2023-03-10T23:46:07.570Z,1.00
2023-03-10T23:48:12.991Z,99.90
2023-03-10T23:50:19.604Z,1.00
2023-03-10T23:52:21.393Z,99.90
2023-03-10T23:54:24.332Z,99.90
2023-03-10T23:56:26.060Z,1.00
2023-03-10T23:58:28.134Z,99.90
